Mossy Head, Florida
Current Conditions -  °F | °C
As of 3:55 AM on Saturday 25 Oct 2014 (Local Time) from K54J Reporting Station
Clear Clear  
Wind Chill: 50°   Ceiling: Unl
Heat Index: 50°   Visibility: 10mi
Dew Point: 45°   Wind: 7mph
Humidity: 83%   Direction: 330°NNW
Pressure: 30.03"   Gusts: NA
Location:  30.76°N, 86.32°W
Report Text: K54J 250855Z AUTO 33006KT 10SM CLR 10/07 A3003 RMK AO2 T01000073
Loading
Personal Weather Stations






























Interactive Weather Map
Tropical Storm Tracking
New forecast layout! Learn more

10-Day Weather Forecast

Advertisements
Track Severe Weather on mobile